createdAt,value
2022-12-02T00:02:31.036Z,68.36
2022-12-02T00:05:13.005Z,68.08
2022-12-02T00:07:45.731Z,68.22
2022-12-02T00:10:26.536Z,68.02
2022-12-02T00:13:03.001Z,68.26
2022-12-02T00:15:42.203Z,68.21
2022-12-02T00:18:16.661Z,68.15
2022-12-02T00:20:49.333Z,68.18
2022-12-02T00:23:23.115Z,68.31
2022-12-02T00:25:56.180Z,68.20
2022-12-02T00:28:28.444Z,68.32
2022-12-02T00:31:01.365Z,68.30
2022-12-02T00:33:33.658Z,68.01
2022-12-02T00:36:06.556Z,67.80
2022-12-02T00:38:38.635Z,68.00
2022-12-02T00:41:10.880Z,67.85
2022-12-02T00:44:00.737Z,67.55
2022-12-02T00:46:33.035Z,67.85
2022-12-02T00:49:07.862Z,67.91
2022-12-02T00:51:41.441Z,67.88
2022-12-02T00:54:14.734Z,67.70
2022-12-02T00:56:47.005Z,67.77
2022-12-02T00:59:19.352Z,67.63
2022-12-02T01:01:52.077Z,67.39
2022-12-02T01:04:24.254Z,67.61
2022-12-02T01:06:56.785Z,67.64
2022-12-02T01:09:28.947Z,67.48
2022-12-02T01:12:01.242Z,67.69
2022-12-02T01:14:33.371Z,67.76
2022-12-02T01:17:05.938Z,67.52
2022-12-02T01:19:38.055Z,67.38
2022-12-02T01:22:10.225Z,67.72
2022-12-02T01:24:42.266Z,67.53
2022-12-02T01:27:14.463Z,67.35
2022-12-02T01:29:46.549Z,67.32
2022-12-02T01:32:19.868Z,67.52
2022-12-02T01:34:52.504Z,67.29
2022-12-02T01:37:25.180Z,67.21
2022-12-02T01:39:57.397Z,67.24
2022-12-02T01:42:30.283Z,67.32
2022-12-02T01:45:03.015Z,67.24
2022-12-02T01:47:37.026Z,67.01
2022-12-02T01:50:12.471Z,67.03
2022-12-02T01:52:45.254Z,66.96
2022-12-02T01:55:20.600Z,67.14
2022-12-02T01:57:53.430Z,67.10
2022-12-02T02:00:27.156Z,67.05
2022-12-02T02:02:59.302Z,67.03
2022-12-02T02:05:35.901Z,66.90
2022-12-02T02:08:12.682Z,67.10
2022-12-02T02:10:47.223Z,67.15
2022-12-02T02:13:20.472Z,67.01
2022-12-02T02:15:53.226Z,67.19
2022-12-02T02:18:25.361Z,66.90
2022-12-02T02:21:00.290Z,66.86
2022-12-02T02:23:32.520Z,66.72
2022-12-02T02:26:05.992Z,66.68
2022-12-02T02:28:40.286Z,66.80
2022-12-02T02:31:12.561Z,66.78
2022-12-02T02:33:49.697Z,66.76
2022-12-02T02:36:22.447Z,66.48
2022-12-02T02:38:55.181Z,66.71
2022-12-02T02:41:28.041Z,66.85
2022-12-02T02:44:00.234Z,66.88
2022-12-02T02:46:32.811Z,66.87
2022-12-02T02:49:05.236Z,66.70
2022-12-02T02:51:37.788Z,66.70
2022-12-02T02:54:10.213Z,66.48
2022-12-02T02:56:42.609Z,66.68
2022-12-02T02:59:17.263Z,66.53
2022-12-02T03:01:53.333Z,66.61
2022-12-02T03:04:27.870Z,66.79
2022-12-02T03:07:00.247Z,66.69
2022-12-02T03:09:33.128Z,66.60
2022-12-02T03:12:06.400Z,66.52
2022-12-02T03:14:39.103Z,66.33
2022-12-02T03:17:11.292Z,66.43
2022-12-02T03:19:44.207Z,66.18
2022-12-02T03:22:16.480Z,66.32
2022-12-02T03:24:49.147Z,66.24
2022-12-02T03:27:21.634Z,66.21
2022-12-02T03:29:54.288Z,66.21
2022-12-02T03:32:27.277Z,66.29
2022-12-02T03:34:59.650Z,66.08
2022-12-02T03:37:32.099Z,66.00
2022-12-02T03:40:04.896Z,66.05
2022-12-02T03:42:37.613Z,66.17
2022-12-02T03:45:11.598Z,66.30
2022-12-02T03:47:44.102Z,65.94
2022-12-02T03:50:16.550Z,65.99
2022-12-02T03:52:49.255Z,66.06
2022-12-02T03:55:22.225Z,66.08
2022-12-02T03:57:54.564Z,66.14
2022-12-02T04:00:26.703Z,66.20
2022-12-02T04:02:59.287Z,66.14
2022-12-02T04:05:32.118Z,66.11
2022-12-02T04:08:04.301Z,66.13
2022-12-02T04:10:36.507Z,66.03
2022-12-02T04:13:08.650Z,66.11
2022-12-02T04:15:40.930Z,66.06
2022-12-02T04:18:13.548Z,66.04
2022-12-02T04:20:45.845Z,65.93
2022-12-02T04:23:18.038Z,66.03
2022-12-02T04:25:50.181Z,66.00
2022-12-02T04:28:23.117Z,66.07
2022-12-02T04:30:55.395Z,65.90
2022-12-02T04:33:27.547Z,66.06
2022-12-02T04:35:59.787Z,65.90
2022-12-02T04:38:31.969Z,66.13
2022-12-02T04:41:04.265Z,65.97
2022-12-02T04:43:36.382Z,65.90
2022-12-02T04:46:08.744Z,66.05
2022-12-02T04:48:41.206Z,65.94
2022-12-02T04:51:13.349Z,65.71
2022-12-02T04:53:45.465Z,65.60
2022-12-02T04:56:17.582Z,65.54
2022-12-02T04:58:49.673Z,65.64
2022-12-02T05:01:21.868Z,65.52
2022-12-02T05:03:54.119Z,65.62
2022-12-02T05:06:26.393Z,65.63
2022-12-02T05:08:58.474Z,65.52
2022-12-02T05:11:35.975Z,65.45
2022-12-02T05:14:08.621Z,65.27
2022-12-02T05:16:40.818Z,65.48
2022-12-02T05:19:13.066Z,65.43
2022-12-02T05:21:45.229Z,65.39
2022-12-02T05:24:17.348Z,65.33
2022-12-02T05:26:49.490Z,65.48
2022-12-02T05:29:21.656Z,65.23
2022-12-02T05:31:53.847Z,65.39
2022-12-02T05:34:26.131Z,65.30
2022-12-02T05:36:58.238Z,65.43
2022-12-02T05:39:30.380Z,65.36
2022-12-02T05:42:07.064Z,65.36
2022-12-02T05:44:40.199Z,65.37
2022-12-02T05:47:14.949Z,65.32
2022-12-02T05:49:48.321Z,65.38
2022-12-02T05:52:25.969Z,65.20
2022-12-02T05:55:01.183Z,65.13
2022-12-02T05:57:32.582Z,65.13
2022-12-02T06:00:18.815Z,65.03
2022-12-02T06:02:53.567Z,65.03
2022-12-02T06:05:27.826Z,65.19
2022-12-02T06:08:03.179Z,65.19
2022-12-02T06:10:38.718Z,65.16
2022-12-02T06:13:19.565Z,65.08
2022-12-02T06:15:52.781Z,65.09
2022-12-02T06:18:29.404Z,65.16
2022-12-02T06:21:04.904Z,64.98
2022-12-02T06:23:37.837Z,65.26
2022-12-02T06:26:10.056Z,64.94
2022-12-02T06:28:44.973Z,65.12
2022-12-02T06:31:20.191Z,65.00
2022-12-02T06:33:51.748Z,64.77
2022-12-02T06:36:28.175Z,65.22
2022-12-02T06:39:03.620Z,65.21
2022-12-02T06:41:39.294Z,65.05
2022-12-02T06:44:35.171Z,65.14
2022-12-02T06:47:47.447Z,65.07
2022-12-02T06:50:37.526Z,65.16
2022-12-02T06:53:25.557Z,65.07
2022-12-02T06:56:02.588Z,65.13
2022-12-02T06:58:41.346Z,65.07
2022-12-02T07:01:23.802Z,65.08
2022-12-02T07:04:23.433Z,65.10
2022-12-02T07:06:59.798Z,64.93
2022-12-02T07:09:39.042Z,65.18
2022-12-02T07:12:17.448Z,65.01
2022-12-02T07:14:51.756Z,64.90
2022-12-02T07:17:27.198Z,64.99
2022-12-02T07:20:02.733Z,64.91
2022-12-02T07:22:37.975Z,64.90
2022-12-02T07:25:31.390Z,64.76
2022-12-02T07:28:11.263Z,64.88
2022-12-02T07:30:44.622Z,64.68
2022-12-02T07:33:16.747Z,64.62
2022-12-02T07:35:49.179Z,64.75
2022-12-02T07:38:42.864Z,64.94
2022-12-02T07:41:13.815Z,64.79
2022-12-02T07:43:45.958Z,64.73
2022-12-02T07:46:18.453Z,64.69
2022-12-02T07:48:54.343Z,64.52
2022-12-02T07:51:29.222Z,64.42
2022-12-02T07:54:01.362Z,64.46
2022-12-02T07:56:33.403Z,64.49
2022-12-02T07:59:13.518Z,64.29
2022-12-02T08:01:46.626Z,64.43
2022-12-02T08:04:18.889Z,64.41
2022-12-02T08:06:50.937Z,64.51
2022-12-02T08:09:23.050Z,64.55
2022-12-02T08:11:55.448Z,64.34
2022-12-02T08:14:27.720Z,64.60
2022-12-02T08:16:59.941Z,64.48
2022-12-02T08:19:32.466Z,64.70
2022-12-02T08:22:04.608Z,64.70
2022-12-02T08:24:37.059Z,64.73
2022-12-02T08:27:09.200Z,64.41
2022-12-02T08:29:41.270Z,64.54
2022-12-02T08:32:13.461Z,64.38
2022-12-02T08:34:45.833Z,64.60
2022-12-02T08:37:18.358Z,64.52
2022-12-02T08:39:50.505Z,64.56
2022-12-02T08:42:22.567Z,64.59
2022-12-02T08:44:54.736Z,64.31
2022-12-02T08:47:26.836Z,64.42
2022-12-02T08:49:58.945Z,64.45
2022-12-02T08:52:31.503Z,64.51
2022-12-02T08:55:03.872Z,64.52
2022-12-02T08:57:35.989Z,64.31
2022-12-02T09:00:11.464Z,64.53
2022-12-02T09:02:43.653Z,64.43
2022-12-02T09:05:16.080Z,64.37
2022-12-02T09:07:48.260Z,64.50
2022-12-02T09:10:20.472Z,64.52
2022-12-02T09:12:53.931Z,64.50
2022-12-02T09:15:26.310Z,64.52
2022-12-02T09:17:58.400Z,64.40
2022-12-02T09:20:30.492Z,64.31
2022-12-02T09:23:02.791Z,64.36
2022-12-02T09:25:34.905Z,64.39
2022-12-02T09:28:07.535Z,64.33
2022-12-02T09:30:40.188Z,64.42
2022-12-02T09:33:12.232Z,64.56
2022-12-02T09:35:44.401Z,64.20
2022-12-02T09:38:16.548Z,64.46
2022-12-02T09:40:48.793Z,64.38
2022-12-02T09:43:21.491Z,64.29
2022-12-02T09:45:53.591Z,64.13
2022-12-02T09:48:26.652Z,64.38
2022-12-02T09:51:00.812Z,64.26
2022-12-02T09:53:37.692Z,64.11
2022-12-02T09:56:15.031Z,64.13
2022-12-02T09:58:48.888Z,64.31
2022-12-02T10:01:21.368Z,64.31
2022-12-02T10:03:54.174Z,64.20
2022-12-02T10:06:29.897Z,64.14
2022-12-02T10:09:02.760Z,64.14
2022-12-02T10:11:35.436Z,64.15
2022-12-02T10:14:07.529Z,64.24
2022-12-02T10:16:40.679Z,64.09
2022-12-02T10:19:17.590Z,64.28
2022-12-02T10:21:55.394Z,64.27
2022-12-02T10:24:40.369Z,64.08
2022-12-02T10:27:26.540Z,63.97
2022-12-02T10:30:18.369Z,64.26
2022-12-02T10:33:02.571Z,64.06
2022-12-02T10:35:47.000Z,64.07
2022-12-02T10:38:41.442Z,63.90
2022-12-02T10:41:20.350Z,64.06
2022-12-02T10:44:13.814Z,63.92
2022-12-02T10:46:46.714Z,63.93
2022-12-02T10:49:34.830Z,64.09
2022-12-02T10:52:11.773Z,64.15
2022-12-02T10:54:51.308Z,64.17
2022-12-02T10:57:27.907Z,64.10
2022-12-02T11:00:05.103Z,64.10
2022-12-02T11:02:42.725Z,64.08
2022-12-02T11:05:18.823Z,63.88
2022-12-02T11:08:03.297Z,64.09
2022-12-02T11:10:38.833Z,64.10
2022-12-02T11:13:48.375Z,64.18
2022-12-02T11:16:53.533Z,63.98
2022-12-02T11:19:47.605Z,64.04
2022-12-02T11:23:15.756Z,63.96
2022-12-02T11:26:11.036Z,64.01
2022-12-02T11:29:18.610Z,64.13
2022-12-02T11:32:19.581Z,63.94
2022-12-02T11:35:16.289Z,63.98
2022-12-02T11:37:47.589Z,64.08
2022-12-02T11:40:59.982Z,64.10
2022-12-02T11:43:55.805Z,63.97
2022-12-02T11:46:42.693Z,63.94
2022-12-02T11:49:33.499Z,63.87
2022-12-02T11:52:18.926Z,64.02
2022-12-02T11:54:56.872Z,63.86
2022-12-02T11:57:32.555Z,63.89
2022-12-02T12:00:05.901Z,63.79
2022-12-02T12:02:44.314Z,63.78
2022-12-02T12:05:16.771Z,63.72
2022-12-02T12:07:50.309Z,63.83
2022-12-02T12:10:32.394Z,63.85
2022-12-02T12:13:19.384Z,63.65
2022-12-02T12:15:56.852Z,64.02
2022-12-02T12:18:47.148Z,63.94
2022-12-02T12:21:42.504Z,63.77
2022-12-02T12:24:33.415Z,63.70
2022-12-02T12:27:33.810Z,63.86
2022-12-02T12:30:07.692Z,63.96
2022-12-02T12:32:39.794Z,63.73
2022-12-02T12:35:12.603Z,63.78
2022-12-02T12:37:44.799Z,63.64
2022-12-02T12:40:17.629Z,63.78
2022-12-02T12:42:49.722Z,63.90
2022-12-02T12:45:21.892Z,63.80
2022-12-02T12:47:53.956Z,63.76
2022-12-02T12:50:30.054Z,63.72
2022-12-02T12:53:02.544Z,63.67
2022-12-02T12:55:34.685Z,63.50
2022-12-02T12:58:06.980Z,63.44
2022-12-02T13:00:39.125Z,63.49
2022-12-02T13:03:11.375Z,63.58
2022-12-02T13:05:43.639Z,63.61
2022-12-02T13:08:16.107Z,63.44
2022-12-02T13:10:48.640Z,63.51
2022-12-02T13:13:20.836Z,63.41
2022-12-02T13:15:52.955Z,63.46
2022-12-02T13:18:25.196Z,63.61
2022-12-02T13:20:57.287Z,63.44
2022-12-02T13:23:29.686Z,63.67
2022-12-02T13:26:01.777Z,63.58
2022-12-02T13:28:33.876Z,63.63
2022-12-02T13:31:06.024Z,63.58
2022-12-02T13:33:38.206Z,63.59
2022-12-02T13:36:11.426Z,63.45
2022-12-02T13:38:43.590Z,63.54
2022-12-02T13:41:15.683Z,63.51
2022-12-02T13:43:47.723Z,63.41
2022-12-02T13:46:20.124Z,63.49
2022-12-02T13:48:52.240Z,63.36
2022-12-02T13:51:24.303Z,63.36
2022-12-02T13:53:59.243Z,63.47
2022-12-02T13:56:30.633Z,63.44
2022-12-02T13:59:02.831Z,63.41
2022-12-02T14:01:35.031Z,63.54
2022-12-02T14:04:07.735Z,63.47
2022-12-02T14:06:39.925Z,63.54
2022-12-02T14:09:12.016Z,63.28
2022-12-02T14:11:44.442Z,63.28
2022-12-02T14:14:16.607Z,63.17
2022-12-02T14:16:48.826Z,63.17
2022-12-02T14:19:21.124Z,63.40
2022-12-02T14:21:53.471Z,63.30
2022-12-02T14:24:25.573Z,63.17
2022-12-02T14:26:57.961Z,63.24
2022-12-02T14:29:30.132Z,63.19
2022-12-02T14:32:02.733Z,63.26
2022-12-02T14:34:34.926Z,63.25
2022-12-02T14:37:12.973Z,63.27
2022-12-02T14:39:46.853Z,63.36
2022-12-02T14:42:19.393Z,63.42
2022-12-02T14:44:52.327Z,63.24
2022-12-02T14:47:24.985Z,63.20
2022-12-02T14:49:57.174Z,63.13
2022-12-02T14:52:29.321Z,63.23
2022-12-02T14:55:01.592Z,62.92
2022-12-02T14:57:33.731Z,63.07
2022-12-02T15:00:09.481Z,63.01
2022-12-02T15:02:41.779Z,63.10
2022-12-02T15:05:18.794Z,63.23
2022-12-02T15:07:51.185Z,63.15
2022-12-02T15:10:23.379Z,63.07
2022-12-02T15:12:55.522Z,63.01
2022-12-02T15:15:38.230Z,63.19
2022-12-02T15:18:11.767Z,62.98
2022-12-02T15:20:43.879Z,63.01
2022-12-02T15:23:15.997Z,62.96
2022-12-02T15:25:48.397Z,63.00
2022-12-02T15:28:20.513Z,62.92
2022-12-02T15:30:52.629Z,63.00
2022-12-02T15:33:25.029Z,63.10
2022-12-02T15:35:57.198Z,62.94
2022-12-02T15:38:29.894Z,62.86
2022-12-02T15:41:02.787Z,62.98
2022-12-02T15:43:34.854Z,62.87
2022-12-02T15:46:07.252Z,62.89
2022-12-02T15:48:39.327Z,62.80
2022-12-02T15:51:11.384Z,62.91
2022-12-02T15:53:45.880Z,62.94
2022-12-02T15:56:18.536Z,62.99
2022-12-02T15:58:50.877Z,63.05
2022-12-02T16:01:23.117Z,63.20
2022-12-02T16:03:55.349Z,63.13
2022-12-02T16:06:27.644Z,63.01
2022-12-02T16:08:59.772Z,63.08
2022-12-02T16:11:31.978Z,63.06
2022-12-02T16:14:04.429Z,62.98
2022-12-02T16:16:36.647Z,63.01
2022-12-02T16:19:08.767Z,62.98
2022-12-02T16:21:40.860Z,62.98
2022-12-02T16:24:13.052Z,62.93
2022-12-02T16:26:45.169Z,62.89
2022-12-02T16:29:17.314Z,62.91
2022-12-02T16:31:49.628Z,62.76
2022-12-02T16:34:21.820Z,62.98
2022-12-02T16:36:54.009Z,62.93
2022-12-02T16:39:26.169Z,62.87
2022-12-02T16:41:58.305Z,62.98
2022-12-02T16:44:30.806Z,62.90
2022-12-02T16:47:03.204Z,62.86
2022-12-02T16:49:35.398Z,62.99
2022-12-02T16:52:07.951Z,62.98
2022-12-02T16:54:40.042Z,63.02
2022-12-02T16:57:12.261Z,62.82
2022-12-02T16:59:45.069Z,62.80
2022-12-02T17:02:17.274Z,62.83
2022-12-02T17:04:49.660Z,62.87
2022-12-02T17:07:21.988Z,62.73
2022-12-02T17:09:54.383Z,62.82
2022-12-02T17:12:26.505Z,62.78
2022-12-02T17:14:58.883Z,62.93
2022-12-02T17:17:45.326Z,62.89
2022-12-02T17:20:20.083Z,62.81
2022-12-02T17:22:52.249Z,62.79
2022-12-02T17:25:25.925Z,62.78
2022-12-02T17:27:58.197Z,62.85
2022-12-02T17:30:30.343Z,62.73
2022-12-02T17:33:02.485Z,62.78
2022-12-02T17:35:34.599Z,62.78
2022-12-02T17:38:06.792Z,62.82
2022-12-02T17:40:38.885Z,63.03
2022-12-02T17:43:10.979Z,63.04
2022-12-02T17:45:43.181Z,62.75
2022-12-02T17:48:15.416Z,62.83
2022-12-02T17:50:48.121Z,62.78
2022-12-02T17:53:20.238Z,62.71
2022-12-02T17:55:52.309Z,62.90
2022-12-02T17:58:24.933Z,62.76
2022-12-02T18:00:57.018Z,62.82
2022-12-02T18:03:29.269Z,62.75
2022-12-02T18:06:01.389Z,62.91
2022-12-02T18:08:33.586Z,62.76
2022-12-02T18:11:06.183Z,62.89
2022-12-02T18:13:39.273Z,62.78
2022-12-02T18:16:11.671Z,62.66
2022-12-02T18:18:43.841Z,62.69
2022-12-02T18:21:16.008Z,62.89
2022-12-02T18:23:48.203Z,62.79
2022-12-02T18:26:20.320Z,62.78
2022-12-02T18:28:52.477Z,62.71
2022-12-02T18:31:24.683Z,62.68
2022-12-02T18:33:56.849Z,62.60
2022-12-02T18:36:29.274Z,62.68
2022-12-02T18:39:01.416Z,62.69
2022-12-02T18:41:33.635Z,62.63
2022-12-02T18:44:06.239Z,62.60
2022-12-02T18:46:38.355Z,62.77
2022-12-02T18:49:10.452Z,62.91
2022-12-02T18:51:42.871Z,62.98
2022-12-02T18:54:15.347Z,62.67
2022-12-02T18:56:47.825Z,62.63
2022-12-02T18:59:19.915Z,62.96
2022-12-02T19:01:52.099Z,62.71
2022-12-02T19:04:24.608Z,62.79
2022-12-02T19:06:56.706Z,63.00
2022-12-02T19:09:28.816Z,62.86
2022-12-02T19:12:00.934Z,62.95
2022-12-02T19:14:33.102Z,62.95
2022-12-02T19:17:05.269Z,63.04
2022-12-02T19:19:37.363Z,62.99
2022-12-02T19:22:09.683Z,62.81
2022-12-02T19:24:41.903Z,62.99
2022-12-02T19:27:34.431Z,63.10
2022-12-02T19:30:07.766Z,62.98
2022-12-02T19:32:39.887Z,62.98
2022-12-02T19:35:12.257Z,62.91
2022-12-02T19:37:44.429Z,62.98
2022-12-02T19:40:17.236Z,63.02
2022-12-02T19:42:49.327Z,62.90
2022-12-02T19:45:21.904Z,62.96
2022-12-02T19:47:54.130Z,62.77
2022-12-02T19:50:26.318Z,62.91
2022-12-02T19:52:58.442Z,62.98
2022-12-02T19:55:30.988Z,63.01
2022-12-02T19:58:03.103Z,62.95
2022-12-02T20:00:35.629Z,62.94
2022-12-02T20:03:08.092Z,63.05
2022-12-02T20:05:40.480Z,63.10
2022-12-02T20:08:13.059Z,63.05
2022-12-02T20:10:45.253Z,62.99
2022-12-02T20:13:18.008Z,62.73
2022-12-02T20:15:53.532Z,62.95
2022-12-02T20:18:30.076Z,62.89
2022-12-02T20:21:02.243Z,62.83
2022-12-02T20:23:34.956Z,62.85
2022-12-02T20:26:07.270Z,62.96
2022-12-02T20:28:39.465Z,62.95
2022-12-02T20:31:11.607Z,62.94
2022-12-02T20:33:44.136Z,62.83
2022-12-02T20:36:16.302Z,63.03
2022-12-02T20:38:48.880Z,63.01
2022-12-02T20:41:21.125Z,63.00
2022-12-02T20:43:53.268Z,63.00
2022-12-02T20:46:25.592Z,62.99
2022-12-02T20:48:58.182Z,63.04
2022-12-02T20:51:30.338Z,63.06
2022-12-02T20:54:02.490Z,63.04
2022-12-02T20:56:34.620Z,62.85
2022-12-02T20:59:06.942Z,62.84
2022-12-02T21:01:39.168Z,63.02
2022-12-02T21:04:11.559Z,63.02
2022-12-02T21:06:43.858Z,63.07
2022-12-02T21:09:16.421Z,63.02
2022-12-02T21:11:48.810Z,63.03
2022-12-02T21:14:21.002Z,62.97
2022-12-02T21:16:53.918Z,62.87
2022-12-02T21:19:26.105Z,62.89
2022-12-02T21:21:58.249Z,62.93
2022-12-02T21:24:30.335Z,62.76
2022-12-02T21:27:02.434Z,62.96
2022-12-02T21:29:34.624Z,63.11
2022-12-02T21:32:07.430Z,63.09
2022-12-02T21:34:39.553Z,63.11
2022-12-02T21:37:11.641Z,63.21
2022-12-02T21:39:43.758Z,62.95
2022-12-02T21:42:15.980Z,63.00
2022-12-02T21:44:48.120Z,63.16
2022-12-02T21:47:20.316Z,63.14
2022-12-02T21:49:52.405Z,63.12
2022-12-02T21:52:25.085Z,63.10
2022-12-02T21:54:57.330Z,63.29
2022-12-02T21:57:29.500Z,63.20
2022-12-02T22:00:01.667Z,63.18
2022-12-02T22:02:33.934Z,63.25
2022-12-02T22:05:06.961Z,63.35
2022-12-02T22:07:42.721Z,63.31
2022-12-02T22:10:17.459Z,63.17
2022-12-02T22:12:50.661Z,63.00
2022-12-02T22:15:23.789Z,63.13
2022-12-02T22:17:56.270Z,63.18
2022-12-02T22:20:28.536Z,63.21
2022-12-02T22:23:00.806Z,63.33
2022-12-02T22:25:32.872Z,63.36
2022-12-02T22:28:05.195Z,63.27
2022-12-02T22:30:37.312Z,63.11
2022-12-02T22:33:09.559Z,63.26
2022-12-02T22:35:41.804Z,63.35
2022-12-02T22:38:14.103Z,63.30
2022-12-02T22:40:46.319Z,63.31
2022-12-02T22:43:18.510Z,63.43
2022-12-02T22:45:50.850Z,63.34
2022-12-02T22:48:22.975Z,63.42
2022-12-02T22:50:55.144Z,63.50
2022-12-02T22:53:27.364Z,63.44
2022-12-02T22:55:59.482Z,63.45
2022-12-02T22:58:31.627Z,63.42
2022-12-02T23:01:04.185Z,63.65
2022-12-02T23:03:36.342Z,63.61
2022-12-02T23:06:08.614Z,63.39
2022-12-02T23:08:40.683Z,63.41
2022-12-02T23:11:13.001Z,63.42
2022-12-02T23:13:45.118Z,63.49
2022-12-02T23:16:17.417Z,63.50
2022-12-02T23:18:49.635Z,63.49
2022-12-02T23:21:22.111Z,63.42
2022-12-02T23:23:54.613Z,63.32
2022-12-02T23:26:27.072Z,63.47
2022-12-02T23:28:59.139Z,63.45
2022-12-02T23:31:31.421Z,63.37
2022-12-02T23:34:04.027Z,63.41
2022-12-02T23:36:36.220Z,63.60
2022-12-02T23:39:08.432Z,63.58
2022-12-02T23:41:40.838Z,63.73
2022-12-02T23:44:12.979Z,63.65
2022-12-02T23:46:45.042Z,63.63
2022-12-02T23:49:17.117Z,63.60
2022-12-02T23:51:49.203Z,63.54
2022-12-02T23:54:21.345Z,63.51
2022-12-02T23:56:53.413Z,63.55
2022-12-02T23:59:25.764Z,63.66
